Time;durP1;ratioP1;P1;durP2;ratioP2;P2;SDS_P1;SDS_P2;PMS_P1;PMS_P2;Temp;Humidity;BMP_temperature;BMP_pressure;BME280_temperature;BME280_humidity;BME280_pressure;Samples;Min_cycle;Max_cycle;Signal;HPM_P1;HPM_P2
2022/06/03 00:02:00;;;;;;;8.30;5.35;;;10.40;99.90;;;;;;4827149;29;20053;-84
2022/06/03 00:04:41;;;;;;;11.95;6.10;;;10.40;99.90;;;;;;4810948;29;20060;-84
2022/06/03 00:07:29;;;;;;;7.13;5.15;;;10.30;99.90;;;;;;4857947;29;20038;-84
2022/06/03 00:10:12;;;;;;;10.40;5.63;;;10.30;99.90;;;;;;4827146;29;20050;-84
2022/06/03 00:12:57;;;;;;;10.30;5.40;;;10.30;99.90;;;;;;4842183;29;20069;-84
2022/06/03 00:15:50;;;;;;;10.32;5.35;;;10.20;99.90;;;;;;4827077;29;20124;-84
2022/06/03 00:18:35;;;;;;;9.85;5.85;;;10.20;99.90;;;;;;4841574;29;20447;-84
2022/06/03 00:21:14;;;;;;;9.90;6.30;;;10.30;99.90;;;;;;4842337;29;20418;-84
2022/06/03 00:24:04;;;;;;;10.85;5.47;;;10.30;99.90;;;;;;4841940;29;20129;-84
2022/06/03 00:26:40;;;;;;;8.18;4.70;;;10.30;99.90;;;;;;4842011;29;20042;-84
2022/06/03 00:29:34;;;;;;;8.27;5.40;;;10.20;99.90;;;;;;4811435;29;20048;-84
2022/06/03 00:32:16;;;;;;;8.93;5.82;;;10.30;99.90;;;;;;4857383;29;20097;-84
2022/06/03 00:35:11;;;;;;;7.60;5.47;;;10.20;99.90;;;;;;4830831;29;20045;-83
2022/06/03 00:37:53;;;;;;;8.13;5.40;;;10.30;99.90;;;;;;4841813;29;20487;-84
2022/06/03 00:40:37;;;;;;;6.95;4.90;;;10.30;99.90;;;;;;4809090;29;20053;-84
2022/06/03 00:43:21;;;;;;;8.55;5.53;;;10.20;99.90;;;;;;4811194;29;20052;-84
2022/06/03 00:46:16;;;;;;;10.52;6.47;;;10.20;99.90;;;;;;4826934;29;20081;-84
2022/06/03 00:49:09;;;;;;;9.20;5.93;;;10.20;99.90;;;;;;4826434;29;20057;-84
2022/06/03 00:52:11;;;;;;;10.77;6.50;;;10.20;99.90;;;;;;4827291;29;20061;-84
2022/06/03 00:54:59;;;;;;;10.98;5.43;;;10.00;99.90;;;;;;4810728;29;20053;-84
2022/06/03 00:57:49;;;;;;;9.48;5.70;;;10.10;99.90;;;;;;4841480;29;20073;-84
2022/06/03 01:00:24;;;;;;;9.98;5.97;;;10.10;99.90;;;;;;4854254;29;20483;-84
2022/06/03 01:03:29;;;;;;;10.82;5.60;;;10.10;99.90;;;;;;4848868;29;20046;-84
2022/06/03 01:06:17;;;;;;;10.25;6.97;;;10.10;99.90;;;;;;4846651;29;20134;-84
2022/06/03 01:09:06;;;;;;;8.48;5.95;;;10.00;99.90;;;;;;4850900;29;20046;-84
2022/06/03 01:11:54;;;;;;;9.30;5.95;;;10.00;99.90;;;;;;4814648;29;20041;-83
2022/06/03 01:14:38;;;;;;;9.45;5.22;;;10.00;99.90;;;;;;4826621;29;20052;-83
2022/06/03 01:17:15;;;;;;;12.18;7.10;;;10.00;99.90;;;;;;4825828;29;20042;-83
2022/06/03 01:20:16;;;;;;;10.45;7.20;;;10.00;99.90;;;;;;4856170;29;20074;-83
2022/06/03 01:23:12;;;;;;;11.73;6.75;;;9.90;99.90;;;;;;4788921;29;20047;-83
2022/06/03 01:26:02;;;;;;;11.55;6.43;;;9.90;99.90;;;;;;4822465;29;20098;-83
2022/06/03 01:28:52;;;;;;;11.07;6.47;;;9.90;99.90;;;;;;4826056;29;20501;-83
2022/06/03 01:31:37;;;;;;;11.73;6.90;;;9.90;99.90;;;;;;4856692;29;20049;-83
2022/06/03 01:34:22;;;;;;;10.43;6.32;;;9.80;99.90;;;;;;4813999;29;20042;-83
2022/06/03 01:37:14;;;;;;;9.18;6.30;;;9.80;99.90;;;;;;4813085;29;20050;-84
2022/06/03 01:39:58;;;;;;;11.63;7.75;;;9.80;99.90;;;;;;4804105;29;20058;-84
2022/06/03 01:42:38;;;;;;;10.38;7.15;;;9.70;99.90;;;;;;4840887;29;20038;-84
2022/06/03 01:45:04;;;;;;;10.80;6.68;;;9.80;99.90;;;;;;4830633;29;20514;-84
2022/06/03 01:48:02;;;;;;;10.70;7.60;;;9.70;99.90;;;;;;4840873;29;20046;-84
2022/06/03 01:50:49;;;;;;;12.32;6.45;;;9.80;99.90;;;;;;4789652;29;20089;-84
2022/06/03 01:53:46;;;;;;;10.13;7.07;;;9.70;99.90;;;;;;4815279;29;20058;-84
2022/06/03 01:56:52;;;;;;;9.90;6.97;;;9.80;99.90;;;;;;4845026;29;20144;-83
2022/06/03 01:59:42;;;;;;;9.15;6.70;;;9.80;99.90;;;;;;4840227;29;20116;-83
2022/06/03 02:02:46;;;;;;;10.48;7.45;;;9.80;99.90;;;;;;4841003;29;20070;-83
2022/06/03 02:05:17;;;;;;;9.80;7.05;;;9.70;99.90;;;;;;4840766;29;20037;-83
2022/06/03 02:08:13;;;;;;;11.57;8.10;;;9.80;99.90;;;;;;4840443;29;20129;-83
2022/06/03 02:11:03;;;;;;;10.07;6.57;;;9.70;99.90;;;;;;4820448;29;20245;-84
2022/06/03 02:13:40;;;;;;;11.95;7.78;;;9.70;99.90;;;;;;4834280;29;20042;-84
2022/06/03 02:16:36;;;;;;;11.32;7.80;;;9.70;99.90;;;;;;4840622;29;20046;-84
2022/06/03 02:19:23;;;;;;;12.60;7.97;;;9.60;99.90;;;;;;4854939;29;20046;-84
2022/06/03 02:22:32;;;;;;;12.07;8.45;;;9.60;99.90;;;;;;4814166;29;20052;-84
2022/06/03 02:25:32;;;;;;;10.65;7.85;;;9.60;99.90;;;;;;4816124;29;20046;-83
2022/06/03 02:28:22;;;;;;;10.75;8.27;;;9.60;99.90;;;;;;4856001;29;20459;-84
2022/06/03 02:31:24;;;;;;;13.23;8.52;;;9.50;99.90;;;;;;4859231;29;20192;-84
2022/06/03 02:34:06;;;;;;;11.52;7.93;;;9.50;99.90;;;;;;4813020;29;20501;-84
2022/06/03 02:36:50;;;;;;;11.10;7.90;;;9.50;99.90;;;;;;4829206;29;20104;-84
2022/06/03 02:39:37;;;;;;;11.68;8.20;;;9.50;99.90;;;;;;4833723;29;20033;-84
2022/06/03 02:42:12;;;;;;;11.95;8.00;;;9.50;99.90;;;;;;4863297;29;20088;-84
2022/06/03 02:44:59;;;;;;;11.40;7.85;;;9.50;99.90;;;;;;4844042;29;20038;-84
2022/06/03 02:47:50;;;;;;;14.10;9.57;;;9.50;99.90;;;;;;4843375;29;20042;-84
2022/06/03 02:51:00;;;;;;;13.93;8.68;;;9.50;99.90;;;;;;4828375;29;20085;-85
2022/06/03 02:53:52;;;;;;;13.68;8.55;;;9.50;99.90;;;;;;4791389;29;20503;-85
2022/06/03 02:56:41;;;;;;;12.60;8.48;;;9.50;99.90;;;;;;4805852;29;20155;-85
2022/06/03 02:59:24;;;;;;;12.25;7.28;;;9.50;99.90;;;;;;4807326;29;20050;-84
2022/06/03 03:02:23;;;;;;;14.27;8.48;;;9.50;99.90;;;;;;4843458;29;20049;-84
2022/06/03 03:05:07;;;;;;;13.85;8.90;;;9.50;99.90;;;;;;4842442;29;20050;-84
2022/06/03 03:07:36;;;;;;;14.40;8.90;;;9.40;99.90;;;;;;4835327;29;20046;-84
2022/06/03 03:10:25;;;;;;;15.13;9.80;;;9.40;99.90;;;;;;4842393;29;20046;-84
2022/06/03 03:12:59;;;;;;;14.93;10.45;;;9.40;99.90;;;;;;4813014;29;20053;-84
2022/06/03 03:15:33;;;;;;;12.57;9.38;;;9.40;99.90;;;;;;4843831;29;20387;-84
2022/06/03 03:18:08;;;;;;;13.02;9.75;;;9.30;99.90;;;;;;4842877;29;20421;-84
2022/06/03 03:20:45;;;;;;;13.95;9.82;;;9.30;99.90;;;;;;4843711;29;20042;-84
2022/06/03 03:23:49;;;;;;;17.67;11.35;;;9.20;99.90;;;;;;4842975;29;20065;-84
2022/06/03 03:26:33;;;;;;;14.20;9.18;;;9.10;99.90;;;;;;4791463;29;20507;-84
2022/06/03 03:29:17;;;;;;;16.60;11.77;;;9.10;99.90;;;;;;4841572;29;20058;-84
2022/06/03 03:31:52;;;;;;;14.55;11.25;;;9.10;99.90;;;;;;4843444;29;20046;-84
2022/06/03 03:34:26;;;;;;;14.40;11.38;;;9.00;99.90;;;;;;4827143;29;20053;-84
2022/06/03 03:37:18;;;;;;;14.60;10.15;;;9.00;99.90;;;;;;4812822;29;20045;-85
2022/06/03 03:39:44;;;;;;;;;;;9.00;99.90;;;;;;4812361;29;20292;-85
2022/06/03 03:42:37;;;;;;;14.82;9.88;;;9.10;99.90;;;;;;4843250;29;19920;-85
2022/06/03 03:45:18;;;;;;;12.32;9.25;;;9.00;99.90;;;;;;4804683;29;20057;-85
2022/06/03 03:48:05;;;;;;;14.43;9.85;;;9.10;99.90;;;;;;4842184;29;20046;-85
2022/06/03 03:51:09;;;;;;;12.32;8.90;;;9.10;99.90;;;;;;4843007;29;20038;-85
2022/06/03 03:53:53;;;;;;;12.32;8.98;;;9.10;99.90;;;;;;4779273;29;20079;-85
2022/06/03 03:56:30;;;;;;;13.52;10.40;;;9.20;99.90;;;;;;4857910;29;20064;-85
2022/06/03 03:59:30;;;;;;;14.07;8.40;;;9.20;99.90;;;;;;4826928;29;20049;-85
2022/06/03 04:02:17;;;;;;;12.40;8.50;;;9.20;99.90;;;;;;4841922;29;20042;-85
2022/06/03 04:05:01;;;;;;;13.40;9.50;;;9.20;99.90;;;;;;4841897;29;20514;-85
2022/06/03 04:07:59;;;;;;;16.85;11.93;;;9.20;99.90;;;;;;4842299;29;20044;-85
2022/06/03 04:10:47;;;;;;;15.85;10.35;;;9.20;99.90;;;;;;4857884;29;20455;-85
2022/06/03 04:13:42;;;;;;;17.05;9.80;;;9.30;99.90;;;;;;4842517;29;20044;-85
2022/06/03 04:16:45;;;;;;;21.08;12.77;;;9.30;99.90;;;;;;4815255;29;20061;-85
2022/06/03 04:19:39;;;;;;;12.85;9.30;;;9.30;99.90;;;;;;4841776;29;20044;-85
2022/06/03 04:22:24;;;;;;;15.80;11.65;;;9.30;99.90;;;;;;4842472;29;20046;-85
2022/06/03 04:25:28;;;;;;;19.08;11.75;;;9.30;99.90;;;;;;4826587;29;20056;-85
2022/06/03 04:28:09;;;;;;;15.82;11.98;;;9.30;99.90;;;;;;4842224;29;20046;-85
2022/06/03 04:31:09;;;;;;;17.05;11.10;;;9.30;99.90;;;;;;4846375;29;20042;-85
2022/06/03 04:34:13;;;;;;;16.98;11.55;;;9.20;99.90;;;;;;4822923;29;20088;-85
2022/06/03 04:36:44;;;;;;;17.08;10.80;;;9.30;99.90;;;;;;4823272;29;20058;-85
2022/06/03 04:39:38;;;;;;;18.42;11.80;;;9.40;99.90;;;;;;4841827;29;20045;-85
2022/06/03 04:42:06;;;;;;;14.25;11.32;;;9.40;99.90;;;;;;4841491;29;20046;-85
2022/06/03 04:45:05;;;;;;;16.02;10.98;;;9.40;99.90;;;;;;4841377;29;20046;-85
2022/06/03 04:48:09;;;;;;;16.98;11.75;;;9.40;99.90;;;;;;4826611;29;20070;-85
2022/06/03 04:50:44;;;;;;;16.45;12.02;;;9.60;99.90;;;;;;4847892;29;20037;-85
2022/06/03 04:53:46;;;;;;;14.40;10.93;;;9.80;99.90;;;;;;4824926;29;20068;-85
2022/06/03 04:57:03;;;;;;;15.75;10.77;;;10.00;99.90;;;;;;4834214;29;20086;-85
2022/06/03 04:59:32;;;;;;;14.65;10.65;;;10.20;99.90;;;;;;4796268;29;20053;-85
2022/06/03 05:02:07;;;;;;;15.02;10.32;;;11.00;99.90;;;;;;4818047;29;20406;-85
2022/06/03 05:05:06;;;;;;;13.90;9.98;;;11.10;99.90;;;;;;4822500;29;20106;-85
2022/06/03 05:07:54;;;;;;;12.95;8.95;;;11.60;99.90;;;;;;4816875;29;20541;-85
2022/06/03 05:10:23;;;;;;;11.38;8.75;;;12.60;99.90;;;;;;4846981;29;20125;-85
2022/06/03 05:13:35;;;;;;;12.60;8.35;;;13.20;99.90;;;;;;4822511;29;20042;-85
2022/06/03 05:16:31;;;;;;;14.13;8.57;;;14.00;99.90;;;;;;4799501;29;20146;-85
2022/06/03 05:18:57;;;;;;;10.35;7.80;;;14.50;99.90;;;;;;4825033;29;20621;-85
2022/06/03 05:21:44;;;;;;;12.70;7.32;;;15.30;99.90;;;;;;4837663;29;20117;-85
2022/06/03 05:24:22;;;;;;;11.88;7.18;;;15.80;99.90;;;;;;4838062;29;20511;-85
2022/06/03 05:27:17;;;;;;;11.73;7.70;;;16.50;99.90;;;;;;4852971;29;20046;-85
2022/06/03 05:30:21;;;;;;;10.60;7.03;;;16.20;99.90;;;;;;4822285;29;20074;-85
2022/06/03 05:33:18;;;;;;;11.95;7.20;;;17.10;99.90;;;;;;4837149;29;20046;-85
2022/06/03 05:36:05;;;;;;;8.75;6.22;;;17.20;99.90;;;;;;4806855;29;20050;-85
2022/06/03 05:38:31;;;;;;;10.98;7.15;;;16.60;99.90;;;;;;4822457;29;20125;-85
2022/06/03 05:44:43;;;;;;;12.82;7.93;;;17.10;99.90;;;;;;4841962;29;20111;-85
2022/06/03 05:47:19;;;;;;;10.18;7.22;;;17.10;99.90;;;;;;4837359;29;20053;-85
2022/06/03 05:50:10;;;;;;;9.82;7.00;;;18.10;99.90;;;;;;4806440;29;20050;-85
2022/06/03 05:52:46;;;;;;;10.65;7.93;;;17.70;99.90;;;;;;4837240;29;20042;-85
2022/06/03 05:55:15;;;;;;;12.18;7.50;;;17.90;98.90;;;;;;4837455;29;20054;-85
2022/06/03 05:58:10;;;;;;;9.93;7.72;;;17.30;99.90;;;;;;4826903;29;20095;-85
2022/06/03 06:00:38;;;;;;;11.60;7.15;;;17.50;99.90;;;;;;4804043;29;20133;-85
2022/06/03 06:03:15;;;;;;;10.95;7.50;;;18.40;99.90;;;;;;4822556;29;20044;-85
2022/06/03 06:05:59;;;;;;;11.93;7.63;;;18.50;95.50;;;;;;4813097;29;20141;-85
2022/06/03 06:08:50;;;;;;;10.18;6.32;;;18.50;95.30;;;;;;4841263;29;20486;-85
2022/06/03 06:11:37;;;;;;;11.65;7.30;;;18.70;92.00;;;;;;4829315;29;20057;-84
2022/06/03 06:14:09;;;;;;;12.05;8.55;;;18.40;95.10;;;;;;4856053;29;20051;-85
2022/06/03 06:16:41;;;;;;;11.45;7.43;;;17.50;97.70;;;;;;4841144;29;20130;-85
2022/06/03 06:19:24;;;;;;;9.90;7.07;;;17.50;99.90;;;;;;4824500;29;20178;-85
2022/06/03 06:22:05;;;;;;;9.77;6.55;;;18.30;99.90;;;;;;4814467;29;20125;-85
2022/06/03 06:24:34;;;;;;;10.10;6.43;;;20.30;93.60;;;;;;4840629;29;20042;-85
2022/06/03 06:27:28;;;;;;;11.98;7.13;;;20.10;86.90;;;;;;4840800;29;20054;-85
2022/06/03 06:30:13;;;;;;;7.95;6.05;;;20.00;81.20;;;;;;4840578;29;20053;-85
2022/06/03 06:33:11;;;;;;;12.80;6.38;;;20.40;87.80;;;;;;4824564;29;20133;-85
2022/06/03 06:35:58;;;;;;;9.45;6.15;;;20.00;81.40;;;;;;4829064;29;20111;-85
2022/06/03 06:38:46;;;;;;;10.05;5.82;;;20.00;78.60;;;;;;4840190;29;20042;-85
2022/06/03 06:41:35;;;;;;;9.80;6.60;;;20.00;81.30;;;;;;4825252;29;20038;-85
2022/06/03 06:44:07;;;;;;;8.98;5.80;;;19.60;80.10;;;;;;4810333;29;20073;-85
2022/06/03 06:47:10;;;;;;;8.15;5.22;;;19.80;82.20;;;;;;4810124;29;20042;-85
2022/06/03 06:49:43;;;;;;;9.00;5.40;;;20.10;83.50;;;;;;4816178;29;20137;-85
2022/06/03 06:52:20;;;;;;;9.48;5.15;;;19.70;81.30;;;;;;4809955;29;20070;-84
2022/06/03 06:54:53;;;;;;;10.35;5.10;;;21.00;68.50;;;;;;4856407;29;20049;-85
2022/06/03 06:57:24;;;;;;;8.15;4.85;;;20.00;73.50;;;;;;4827774;29;20096;-85
2022/06/03 07:00:07;;;;;;;11.32;5.57;;;20.20;77.60;;;;;;4843331;29;20050;-85
2022/06/03 07:02:37;;;;;;;7.97;4.78;;;20.20;77.40;;;;;;4812352;29;20037;-85
2022/06/03 07:05:23;;;;;;;8.15;4.78;;;20.30;75.90;;;;;;4813135;29;20050;-85
2022/06/03 07:07:52;;;;;;;8.60;4.85;;;20.90;74.60;;;;;;4815615;29;20050;-85
2022/06/03 07:10:31;;;;;;;7.50;4.55;;;21.00;74.10;;;;;;4843458;29;20443;-85
2022/06/03 07:13:11;;;;;;;9.02;4.75;;;22.10;69.80;;;;;;4846161;29;20050;-85
2022/06/03 07:15:57;;;;;;;7.93;4.68;;;21.00;70.60;;;;;;4826693;29;20517;-85
2022/06/03 07:21:59;;;;;;;9.23;5.38;;;20.70;70.50;;;;;;4829970;29;20041;-85
2022/06/03 07:24:55;;;;;;;7.82;4.40;;;20.70;73.10;;;;;;4825654;29;20502;-85
2022/06/03 07:27:35;;;;;;;8.32;4.97;;;21.20;76.00;;;;;;4848480;29;20128;-85
2022/06/03 07:30:16;;;;;;;8.57;4.72;;;21.20;68.40;;;;;;4842657;29;20038;-85
2022/06/03 07:32:47;;;;;;;8.70;4.20;;;21.10;70.20;;;;;;4811690;29;20087;-85
2022/06/03 07:36:08;;;;;;;7.85;4.38;;;21.10;72.50;;;;;;4812009;29;20034;-85
2022/06/03 07:38:45;;;;;;;7.68;4.20;;;21.40;68.10;;;;;;4791392;29;20048;-85
2022/06/03 07:41:37;;;;;;;7.25;4.30;;;21.70;65.80;;;;;;4812465;29;20406;-86
2022/06/03 07:44:19;;;;;;;10.35;5.40;;;21.80;63.20;;;;;;4830321;29;20073;-85
2022/06/03 07:46:54;;;;;;;8.77;4.88;;;21.50;68.50;;;;;;4812010;29;20049;-85
2022/06/03 07:49:24;;;;;;;8.10;4.13;;;21.40;66.30;;;;;;4826544;29;20046;-85
2022/06/03 07:52:28;;;;;;;8.35;4.55;;;21.50;70.30;;;;;;4826915;29;20050;-86
2022/06/03 07:54:56;;;;;;;7.53;4.00;;;21.70;65.90;;;;;;4810306;29;20048;-85
2022/06/03 07:57:25;;;;;;;7.80;4.47;;;22.00;68.40;;;;;;4801280;29;20434;-85
2022/06/03 07:59:56;;;;;;;7.07;4.40;;;22.10;64.30;;;;;;4811875;29;20096;-85
2022/06/03 08:02:23;;;;;;;7.57;4.70;;;21.80;65.70;;;;;;4826840;29;20037;-85
2022/06/03 08:05:19;;;;;;;7.32;4.70;;;21.80;64.40;;;;;;4811183;29;20512;-85
2022/06/03 08:10:57;;;;;;;8.07;4.47;;;21.20;67.30;;;;;;4826823;29;20518;-85
2022/06/03 08:13:44;;;;;;;7.93;4.40;;;21.60;69.20;;;;;;4826667;29;20125;-85
2022/06/03 08:16:24;;;;;;;8.27;4.35;;;21.40;70.90;;;;;;4823754;29;20128;-85
2022/06/03 08:18:50;;;;;;;7.00;4.00;;;21.00;68.80;;;;;;4856840;29;20121;-85
2022/06/03 08:21:26;;;;;;;9.27;4.60;;;20.90;69.40;;;;;;4841218;29;20053;-86
2022/06/03 08:23:56;;;;;;;9.48;4.78;;;21.40;67.50;;;;;;4826827;29;20053;-86
2022/06/03 08:26:26;;;;;;;7.78;4.15;;;21.10;70.00;;;;;;4825230;29;20102;-86
2022/06/03 08:29:00;;;;;;;7.47;4.22;;;20.90;74.40;;;;;;4826511;29;20117;-86
2022/06/03 08:31:25;;;;;;;6.40;3.83;;;21.40;69.50;;;;;;4811497;29;20042;-86
2022/06/03 08:33:58;;;;;;;7.30;3.95;;;21.80;71.60;;;;;;4821045;29;20513;-86
2022/06/03 08:36:31;;;;;;;7.55;4.15;;;22.00;68.90;;;;;;4837922;29;20041;-86
2022/06/03 08:39:23;;;;;;;8.15;4.28;;;22.10;72.80;;;;;;4811200;29;20038;-86
2022/06/03 08:42:20;;;;;;;7.78;4.50;;;22.20;68.50;;;;;;4841347;29;20494;-86
2022/06/03 08:44:52;;;;;;;8.18;4.13;;;22.10;65.60;;;;;;4856703;29;20049;-86
2022/06/03 08:47:26;;;;;;;6.65;3.70;;;22.20;66.50;;;;;;4811351;29;20491;-86
2022/06/03 08:50:03;;;;;;;7.55;3.80;;;22.30;68.30;;;;;;4807917;29;20521;-86
2022/06/03 08:52:44;;;;;;;7.80;3.90;;;22.60;63.80;;;;;;4845861;29;20391;-86
2022/06/03 08:55:59;;;;;;;6.63;3.72;;;21.90;66.60;;;;;;4825654;29;20058;-86
2022/06/03 08:58:56;;;;;;;7.07;3.60;;;22.10;66.60;;;;;;4821948;29;20046;-86
2022/06/03 09:01:25;;;;;;;6.43;3.40;;;22.30;66.50;;;;;;4832681;29;20046;-85
2022/06/03 09:04:23;;;;;;;8.00;3.70;;;22.50;59.90;;;;;;4826589;29;20038;-85
2022/06/03 09:07:06;;;;;;;6.05;3.03;;;22.50;60.60;;;;;;4809062;29;20058;-86
2022/06/03 09:09:51;;;;;;;6.72;3.10;;;22.10;62.00;;;;;;4830548;29;20080;-85
2022/06/03 09:12:55;;;;;;;6.18;2.97;;;22.40;59.90;;;;;;4839855;29;20041;-85
2022/06/03 09:15:25;;;;;;;5.97;3.05;;;22.80;61.60;;;;;;4851140;29;20046;-85
2022/06/03 09:18:18;;;;;;;7.18;3.38;;;22.80;61.80;;;;;;4809975;29;20049;-85
2022/06/03 09:20:52;;;;;;;5.63;3.10;;;22.50;60.70;;;;;;4840886;29;20135;-85
2022/06/03 09:23:20;;;;;;;5.18;3.00;;;22.60;60.00;;;;;;4836572;29;20050;-85
2022/06/03 09:25:50;;;;;;;5.97;3.00;;;22.20;58.70;;;;;;4825840;29;20053;-85
2022/06/03 09:28:31;;;;;;;5.43;3.00;;;22.80;60.20;;;;;;4822814;29;20038;-85
2022/06/03 09:30:59;;;;;;;9.57;3.55;;;23.10;58.70;;;;;;4811028;29;20046;-86
2022/06/03 09:33:27;;;;;;;5.47;3.10;;;22.30;57.60;;;;;;4812835;29;20073;-86
2022/06/03 09:35:56;;;;;;;6.70;3.38;;;22.20;59.60;;;;;;4825422;29;20046;-86
2022/06/03 09:38:26;;;;;;;6.85;3.35;;;22.60;59.10;;;;;;4840206;29;20037;-86
2022/06/03 09:40:58;;;;;;;6.50;3.20;;;22.60;60.10;;;;;;4825657;29;20045;-86
2022/06/03 09:43:35;;;;;;;5.43;2.88;;;22.80;56.50;;;;;;4825126;29;20046;-86
2022/06/03 09:46:03;;;;;;;5.85;2.97;;;22.90;55.90;;;;;;4825680;29;20053;-86
2022/06/03 09:48:36;;;;;;;7.18;3.00;;;23.00;55.70;;;;;;4809322;29;20045;-84
2022/06/03 09:51:13;;;;;;;5.72;2.70;;;23.00;56.10;;;;;;4825750;29;20057;-86
2022/06/03 09:53:42;;;;;;;6.72;2.70;;;23.00;56.30;;;;;;4810149;29;20409;-86
2022/06/03 09:56:29;;;;;;;6.32;2.95;;;23.00;58.90;;;;;;4818007;29;20059;-85
2022/06/03 09:59:00;;;;;;;6.68;3.00;;;23.00;56.10;;;;;;4836586;29;20084;-85
2022/06/03 10:01:27;;;;;;;7.63;3.13;;;23.20;53.70;;;;;;4852926;29;20449;-85
2022/06/03 10:04:05;;;;;;;5.93;2.85;;;23.20;55.70;;;;;;4823261;29;20049;-85
2022/06/03 10:06:46;;;;;;;5.53;2.58;;;23.30;56.90;;;;;;4814759;29;20043;-85
2022/06/03 10:15:37;;;;;;;5.60;2.80;;;23.40;56.60;;;;;;4801686;29;20059;-85
2022/06/03 10:17:36;;;;;;;5.75;2.70;;;23.10;56.60;;;;;;4833418;29;20452;-85
2022/06/03 10:20:03;;;;;;;6.57;3.25;;;23.30;55.90;;;;;;4807053;29;20418;-85
2022/06/03 10:22:29;;;;;;;7.32;3.20;;;23.30;55.50;;;;;;4837215;29;20047;-85
2022/06/03 10:24:56;;;;;;;5.88;2.92;;;23.20;54.00;;;;;;4836901;29;20042;-85
2022/06/03 10:27:21;;;;;;;6.05;3.00;;;23.20;56.10;;;;;;4822108;29;20050;-85
2022/06/03 10:29:51;;;;;;;5.60;2.95;;;23.20;58.00;;;;;;4806381;29;20042;-85
2022/06/03 10:32:21;;;;;;;5.63;2.42;;;23.20;57.90;;;;;;4807328;29;20099;-85
2022/06/03 10:34:47;;;;;;;6.03;3.30;;;23.50;56.60;;;;;;4806158;29;20046;-85
2022/06/03 10:37:25;;;;;;;7.05;2.72;;;23.20;52.70;;;;;;4822153;29;20423;-85
2022/06/03 10:39:55;;;;;;;6.70;3.08;;;23.20;54.00;;;;;;4806674;29;20505;-85
2022/06/03 10:42:23;;;;;;;5.70;2.80;;;22.60;55.60;;;;;;4822013;29;20133;-85
2022/06/03 10:44:54;;;;;;;6.03;3.10;;;23.20;57.10;;;;;;4837231;29;20050;-86
2022/06/03 10:47:36;;;;;;;6.97;3.20;;;23.20;54.30;;;;;;4806899;29;20064;-85
2022/06/03 10:50:25;;;;;;;6.50;2.83;;;23.00;54.30;;;;;;4822364;29;20129;-86
2022/06/03 11:01:30;;;;;;;6.25;3.03;;;22.70;56.50;;;;;;4825633;29;20050;-85
2022/06/03 11:03:56;;;;;;;6.82;2.78;;;22.80;55.30;;;;;;4840221;29;20042;-85
2022/06/03 11:06:28;;;;;;;5.20;2.63;;;23.00;59.00;;;;;;4796041;29;20207;-84
2022/06/03 11:08:59;;;;;;;6.07;2.80;;;23.50;59.70;;;;;;4825092;29;20093;-85
2022/06/03 11:11:45;;;;;;;7.43;2.85;;;23.20;55.00;;;;;;4825558;29;20034;-85
2022/06/03 11:14:26;;;;;;;5.90;2.90;;;23.00;54.80;;;;;;4840581;29;20129;-85
2022/06/03 11:17:06;;;;;;;6.07;2.65;;;23.40;56.50;;;;;;4825613;29;20050;-85
2022/06/03 11:19:38;;;;;;;6.22;2.40;;;23.40;55.30;;;;;;4809353;29;20049;-85
2022/06/03 11:22:29;;;;;;;5.78;2.58;;;23.50;52.80;;;;;;4810259;29;20420;-85
2022/06/03 11:25:26;;;;;;;6.45;2.70;;;23.70;53.00;;;;;;4824279;29;20053;-85
2022/06/03 11:27:58;;;;;;;5.45;2.20;;;23.30;53.40;;;;;;4824730;29;20054;-85
2022/06/03 11:30:50;;;;;;;;;;;23.60;55.10;;;;;;4840644;29;20050;-85
2022/06/03 11:33:25;;;;;;;6.68;3.20;;;23.70;53.00;;;;;;4841338;29;19921;-85
2022/06/03 11:36:12;;;;;;;5.82;2.50;;;23.70;51.50;;;;;;4824540;29;20051;-85
2022/06/03 11:38:53;;;;;;;5.70;2.78;;;23.70;52.00;;;;;;4790275;29;20068;-85
2022/06/03 11:41:24;;;;;;;5.47;2.10;;;23.90;51.60;;;;;;4824837;29;20047;-85
2022/06/03 11:44:09;;;;;;;6.15;2.90;;;24.00;53.80;;;;;;4808805;29;20049;-85
2022/06/03 11:46:35;;;;;;;5.05;2.53;;;24.10;51.40;;;;;;4824397;29;20047;-86
2022/06/03 11:49:01;;;;;;;7.07;2.70;;;24.00;50.60;;;;;;4838686;29;20429;-85
2022/06/03 11:51:27;;;;;;;6.22;2.80;;;23.80;50.80;;;;;;4824469;29;20103;-85
2022/06/03 11:53:53;;;;;;;4.97;2.50;;;23.40;51.30;;;;;;4824199;29;20394;-85
2022/06/03 11:56:26;;;;;;;6.88;3.00;;;23.40;52.40;;;;;;4821467;29;20546;-85
2022/06/03 11:58:58;;;;;;;5.22;2.63;;;23.50;50.40;;;;;;4841248;29;20045;-85
2022/06/03 12:01:29;;;;;;;5.25;2.55;;;23.50;52.40;;;;;;4855195;29;20075;-85
2022/06/03 12:04:08;;;;;;;5.78;2.20;;;23.00;52.10;;;;;;4854707;29;20388;-86
2022/06/03 12:07:05;;;;;;;6.07;3.00;;;23.30;52.50;;;;;;4810276;29;20050;-85
2022/06/03 12:09:54;;;;;;;5.15;2.60;;;22.90;52.00;;;;;;4813258;29;20046;-85
2022/06/03 12:15:29;;;;;;;7.13;3.03;;;22.90;51.90;;;;;;4844557;29;20141;-84
2022/06/03 12:17:56;;;;;;;;;;;22.70;50.10;;;;;;4841041;29;20050;-85
2022/06/03 12:20:43;;;;;;;5.32;2.70;;;23.10;53.10;;;;;;4817628;29;19927;-85
2022/06/03 12:23:12;;;;;;;5.97;2.50;;;23.10;52.00;;;;;;4854634;29;20133;-84
2022/06/03 12:25:56;;;;;;;7.85;2.50;;;23.30;51.20;;;;;;4839372;29;20408;-84
2022/06/03 12:28:33;;;;;;;5.70;2.40;;;23.40;53.70;;;;;;4836116;29;20120;-84
2022/06/03 12:31:17;;;;;;;5.25;2.45;;;23.40;52.90;;;;;;4809254;29;20116;-84
2022/06/03 12:33:58;;;;;;;6.88;2.63;;;23.40;51.90;;;;;;4822848;29;20051;-85
2022/06/03 12:37:00;;;;;;;6.85;2.55;;;23.60;51.10;;;;;;4824097;29;20050;-84
2022/06/03 12:39:33;;;;;;;5.97;2.50;;;23.50;50.70;;;;;;4847005;29;20441;-85
2022/06/03 12:42:03;;;;;;;6.18;2.70;;;23.50;51.00;;;;;;4825557;29;20051;-85
2022/06/03 12:44:44;;;;;;;5.78;2.30;;;23.40;51.20;;;;;;4845035;29;20531;-85
2022/06/03 12:47:48;;;;;;;4.75;2.40;;;23.30;52.20;;;;;;4811996;29;20050;-84
2022/06/03 12:50:32;;;;;;;5.72;2.55;;;23.00;53.50;;;;;;4807409;29;20054;-84
2022/06/03 12:53:34;;;;;;;6.40;2.60;;;23.20;52.40;;;;;;4838137;29;20118;-85
2022/06/03 12:56:02;;;;;;;6.47;2.40;;;23.20;53.00;;;;;;4801581;29;20126;-85
2022/06/03 12:59:03;;;;;;;5.88;2.55;;;23.20;52.50;;;;;;4848643;29;20129;-85
2022/06/03 13:01:41;;;;;;;6.20;2.33;;;23.50;52.20;;;;;;4783844;29;20050;-85
2022/06/03 13:04:36;;;;;;;5.78;2.72;;;23.60;52.10;;;;;;4813626;29;20038;-85
2022/06/03 13:07:13;;;;;;;5.47;2.40;;;23.40;51.00;;;;;;4806139;29;20452;-85
2022/06/03 13:10:03;;;;;;;4.97;2.00;;;23.60;51.30;;;;;;4811993;29;20062;-84
2022/06/03 13:12:32;;;;;;;5.82;2.40;;;23.50;55.20;;;;;;4828277;29;20111;-84
2022/06/03 13:15:16;;;;;;;4.68;2.20;;;23.60;52.20;;;;;;4829818;29;20423;-84
2022/06/03 13:18:07;;;;;;;5.82;2.63;;;23.50;52.20;;;;;;4842554;29;20504;-84
2022/06/03 13:20:39;;;;;;;5.80;2.38;;;23.50;52.50;;;;;;4828592;29;20054;-84
2022/06/03 13:23:32;;;;;;;5.93;2.10;;;23.60;52.00;;;;;;4808467;29;20266;-85
2022/06/03 13:26:20;;;;;;;4.88;2.38;;;23.70;51.80;;;;;;4820881;29;20043;-85
2022/06/03 13:28:51;;;;;;;6.53;2.22;;;23.60;50.60;;;;;;4826811;29;20531;-85
2022/06/03 13:31:20;;;;;;;5.53;2.40;;;23.60;51.00;;;;;;4798562;29;20041;-85
2022/06/03 13:34:11;;;;;;;4.95;2.20;;;23.60;51.10;;;;;;4827332;29;20128;-85
2022/06/03 13:36:41;;;;;;;5.82;2.30;;;23.50;51.40;;;;;;4835722;29;20050;-84
2022/06/03 13:39:33;;;;;;;5.22;1.98;;;23.40;49.10;;;;;;4822783;29;20046;-84
2022/06/03 13:45:03;;;;;;;5.40;2.28;;;23.40;51.90;;;;;;4853712;29;19956;-84
2022/06/03 13:47:39;;;;;;;5.10;2.40;;;23.20;50.50;;;;;;4823204;29;20084;-85
2022/06/03 13:50:14;;;;;;;6.03;2.30;;;23.30;50.10;;;;;;4820519;29;20042;-85
2022/06/03 13:52:51;;;;;;;5.13;1.90;;;23.30;51.60;;;;;;4823031;29;20086;-85
2022/06/03 13:55:38;;;;;;;5.05;2.10;;;23.30;52.40;;;;;;4822231;29;20054;-85
2022/06/03 13:58:27;;;;;;;6.18;2.30;;;23.20;51.00;;;;;;4837610;29;20054;-85
2022/06/03 14:01:37;;;;;;;4.63;2.00;;;23.20;51.20;;;;;;4821887;29;20077;-85
2022/06/03 14:04:28;;;;;;;5.03;2.33;;;23.10;52.30;;;;;;4751918;30;20061;-85
2022/06/03 14:07:02;;;;;;;5.95;2.30;;;23.30;51.30;;;;;;4811025;29;20054;-85
2022/06/03 14:09:51;;;;;;;5.63;2.00;;;23.30;50.60;;;;;;4824890;29;20106;-85
2022/06/03 14:12:40;;;;;;;4.75;1.92;;;23.20;49.90;;;;;;4821325;29;20052;-85
2022/06/03 14:15:21;;;;;;;5.53;2.20;;;23.30;50.70;;;;;;4822425;29;20107;-85
2022/06/03 14:17:55;;;;;;;4.78;2.00;;;23.50;51.80;;;;;;4820372;29;20071;-85
2022/06/03 14:20:48;;;;;;;4.70;1.73;;;23.40;52.30;;;;;;4807861;29;20072;-85
2022/06/03 14:23:17;;;;;;;5.80;1.90;;;23.50;52.50;;;;;;4837609;29;20496;-85
2022/06/03 14:25:55;;;;;;;5.25;2.00;;;23.50;52.20;;;;;;4839752;29;20099;-85
2022/06/03 14:28:42;;;;;;;4.90;1.80;;;23.50;50.40;;;;;;4810558;29;20043;-86
2022/06/03 14:31:35;;;;;;;5.18;1.90;;;23.50;50.70;;;;;;4826048;29;20410;-85
2022/06/03 14:34:28;;;;;;;4.95;1.80;;;23.10;50.90;;;;;;4840303;29;20077;-85
2022/06/03 14:36:56;;;;;;;4.38;1.85;;;23.20;51.30;;;;;;4825358;29;20042;-85